createdAt,value
2022-08-28T00:01:41.745Z,84.19
2022-08-28T00:04:08.453Z,84.01
2022-08-28T00:06:39.701Z,84.24
2022-08-28T00:09:07.954Z,83.93
2022-08-28T00:11:38.364Z,84.25
2022-08-28T00:14:08.128Z,83.79
2022-08-28T00:16:35.734Z,84.08
2022-08-28T00:19:02.735Z,84.26
2022-08-28T00:21:29.788Z,84.36
2022-08-28T00:23:56.357Z,84.42
2022-08-28T00:26:41.589Z,83.92
2022-08-28T00:29:14.603Z,83.88
2022-08-28T00:31:41.342Z,84.09
2022-08-28T00:34:09.468Z,83.96
2022-08-28T00:36:37.350Z,84.47
2022-08-28T00:39:05.750Z,85.03
2022-08-28T00:41:35.510Z,84.84
2022-08-28T00:44:30.140Z,84.57
2022-08-28T00:46:59.083Z,84.19
2022-08-28T00:49:29.382Z,84.40
2022-08-28T00:52:11.803Z,84.64
2022-08-28T00:54:45.697Z,84.75
2022-08-28T00:57:28.137Z,84.47
2022-08-28T00:59:54.796Z,84.57
2022-08-28T01:02:21.562Z,84.89
2022-08-28T01:04:49.254Z,84.56
2022-08-28T01:07:16.374Z,85.05
2022-08-28T01:09:47.451Z,84.97
2022-08-28T01:12:19.485Z,85.30
2022-08-28T01:14:48.613Z,85.30
2022-08-28T01:17:17.487Z,85.54
2022-08-28T01:19:56.387Z,85.40
2022-08-28T01:22:40.101Z,85.46
2022-08-28T01:25:12.438Z,85.33
2022-08-28T01:27:41.870Z,85.54
2022-08-28T01:30:15.927Z,85.42
2022-08-28T01:32:47.293Z,85.51
2022-08-28T01:35:21.526Z,85.54
2022-08-28T01:37:49.163Z,86.02
2022-08-28T01:40:22.865Z,85.88
2022-08-28T01:42:50.244Z,86.21
2022-08-28T01:45:19.693Z,85.85
2022-08-28T01:47:47.185Z,86.40
2022-08-28T01:50:17.492Z,86.38
2022-08-28T01:52:44.161Z,86.19
2022-08-28T01:55:11.373Z,86.30
2022-08-28T01:57:50.781Z,86.69
2022-08-28T02:00:21.280Z,86.76
2022-08-28T02:02:51.473Z,86.78
2022-08-28T02:05:19.363Z,87.10
2022-08-28T02:07:46.361Z,87.28
2022-08-28T02:10:12.948Z,87.46
2022-08-28T02:12:39.559Z,87.45
2022-08-28T02:15:07.705Z,87.70
2022-08-28T02:17:34.681Z,87.78
2022-08-28T02:20:01.562Z,87.65
2022-08-28T02:22:28.229Z,87.94
2022-08-28T02:24:54.889Z,88.04
2022-08-28T02:27:21.514Z,87.90
2022-08-28T02:29:48.469Z,88.49
2022-08-28T02:32:15.133Z,88.46
2022-08-28T02:34:43.526Z,88.90
2022-08-28T02:37:13.242Z,88.66
2022-08-28T02:39:40.286Z,89.15
2022-08-28T02:42:06.997Z,89.10
2022-08-28T02:44:34.098Z,89.24
2022-08-28T02:47:00.969Z,89.18
2022-08-28T02:49:31.328Z,89.51
2022-08-28T02:52:04.314Z,89.41
2022-08-28T02:54:30.993Z,89.50
2022-08-28T02:56:58.580Z,89.92
2022-08-28T02:59:25.324Z,89.70
2022-08-28T03:01:53.399Z,89.92
2022-08-28T03:04:20.019Z,90.16
2022-08-28T03:06:46.672Z,89.74
2022-08-28T03:09:13.235Z,90.11
2022-08-28T03:11:41.177Z,89.58
2022-08-28T03:14:08.097Z,89.73
2022-08-28T03:16:36.263Z,89.82
2022-08-28T03:19:03.913Z,89.92
2022-08-28T03:21:30.472Z,89.62
2022-08-28T03:23:57.221Z,89.45
2022-08-28T03:26:24.342Z,89.95
2022-08-28T03:28:53.273Z,89.49
2022-08-28T03:31:23.513Z,89.89
2022-08-28T03:33:50.538Z,89.91
2022-08-28T03:36:25.519Z,89.63
2022-08-28T03:38:56.954Z,89.63
2022-08-28T03:41:26.906Z,89.77
2022-08-28T03:43:53.528Z,90.18
2022-08-28T03:46:23.625Z,90.33
2022-08-28T03:48:52.703Z,90.89
2022-08-28T03:51:29.408Z,90.68
2022-08-28T03:53:58.424Z,90.40
2022-08-28T03:56:27.167Z,90.69
2022-08-28T03:58:57.393Z,90.66
2022-08-28T04:01:24.910Z,91.12
2022-08-28T04:03:51.609Z,90.94
2022-08-28T04:06:19.775Z,90.34
2022-08-28T04:08:49.544Z,90.60
2022-08-28T04:11:17.329Z,90.94
2022-08-28T04:13:45.145Z,90.71
2022-08-28T04:16:16.617Z,91.21
2022-08-28T04:18:44.082Z,91.63
2022-08-28T04:21:14.373Z,91.68
2022-08-28T04:23:43.276Z,91.93
2022-08-28T04:26:13.129Z,92.04
2022-08-28T04:28:40.936Z,92.17
2022-08-28T04:31:08.222Z,92.67
2022-08-28T04:33:35.985Z,92.46
2022-08-28T04:36:09.213Z,92.44
2022-08-28T04:38:41.586Z,92.17
2022-08-28T04:41:12.834Z,92.56
2022-08-28T04:43:39.699Z,92.73
2022-08-28T04:46:08.815Z,92.35
2022-08-28T04:48:36.268Z,93.03
2022-08-28T04:51:05.672Z,92.83
2022-08-28T04:53:32.941Z,93.09
2022-08-28T04:56:02.435Z,92.60
2022-08-28T04:58:34.244Z,92.93
2022-08-28T05:01:13.109Z,93.16
2022-08-28T05:03:40.004Z,93.12
2022-08-28T05:06:07.273Z,93.16
2022-08-28T05:08:34.597Z,93.26
2022-08-28T05:11:33.147Z,92.86
2022-08-28T05:14:04.310Z,93.15
2022-08-28T05:16:31.888Z,93.05
2022-08-28T05:19:03.144Z,92.77
2022-08-28T05:21:29.848Z,93.34
2022-08-28T05:23:58.031Z,93.01
2022-08-28T05:26:27.053Z,93.18
2022-08-28T05:28:56.641Z,92.97
2022-08-28T05:31:24.392Z,93.46
2022-08-28T05:33:52.649Z,93.19
2022-08-28T05:36:22.544Z,92.65
2022-08-28T05:38:51.362Z,92.55
2022-08-28T05:41:24.514Z,92.39
2022-08-28T05:43:53.954Z,92.34
2022-08-28T05:46:22.276Z,92.30
2022-08-28T05:48:49.567Z,92.50
2022-08-28T05:51:20.060Z,92.40
2022-08-28T05:53:49.938Z,91.96
2022-08-28T05:56:23.620Z,91.10
2022-08-28T05:58:50.226Z,91.29
2022-08-28T06:01:24.261Z,91.49
2022-08-28T06:03:57.788Z,91.11
2022-08-28T06:06:26.058Z,91.34
2022-08-28T06:08:58.549Z,91.50
2022-08-28T06:11:31.149Z,91.78
2022-08-28T06:14:03.284Z,91.15
2022-08-28T06:16:32.976Z,91.07
2022-08-28T06:19:00.912Z,91.04
2022-08-28T06:21:28.456Z,90.35
2022-08-28T06:23:55.236Z,90.76
2022-08-28T06:26:22.401Z,90.66
2022-08-28T06:28:49.117Z,90.29
2022-08-28T06:31:23.442Z,89.36
2022-08-28T06:33:56.130Z,89.06
2022-08-28T06:36:24.728Z,88.66
2022-08-28T06:38:51.460Z,87.94
2022-08-28T06:41:18.812Z,88.07
2022-08-28T06:43:49.547Z,88.25
2022-08-28T06:46:19.999Z,88.00
2022-08-28T06:48:47.114Z,86.93
2022-08-28T06:51:14.733Z,86.67
2022-08-28T06:53:43.718Z,85.62
2022-08-28T06:56:26.477Z,85.35
2022-08-28T06:58:56.649Z,85.59
2022-08-28T07:01:30.102Z,85.65
2022-08-28T07:04:01.293Z,85.43
2022-08-28T07:06:32.277Z,86.41
2022-08-28T07:08:58.867Z,86.01
2022-08-28T07:11:29.298Z,84.22
2022-08-28T07:13:57.113Z,84.15
2022-08-28T07:16:27.515Z,84.16
2022-08-28T07:18:57.372Z,83.59
2022-08-28T07:21:25.566Z,83.47
2022-08-28T07:23:52.310Z,81.91
2022-08-28T07:26:23.269Z,82.31
2022-08-28T07:28:51.307Z,81.77
2022-08-28T07:31:26.750Z,81.78
2022-08-28T07:33:55.045Z,81.03
2022-08-28T07:36:29.550Z,81.37
2022-08-28T07:38:59.464Z,78.91
2022-08-28T07:41:32.013Z,78.60
2022-08-28T07:44:18.278Z,77.71
2022-08-28T07:46:45.710Z,77.83
2022-08-28T07:49:16.964Z,77.10
2022-08-28T07:51:43.647Z,76.69
2022-08-28T07:54:17.592Z,75.46
2022-08-28T07:56:46.076Z,74.42
2022-08-28T07:59:16.641Z,74.11
2022-08-28T08:01:49.071Z,71.18
2022-08-28T08:04:17.227Z,70.20
2022-08-28T08:06:44.381Z,69.01
2022-08-28T08:09:13.782Z,68.53
2022-08-28T08:11:40.874Z,68.32
2022-08-28T08:14:07.564Z,67.69
2022-08-28T08:16:38.642Z,67.35
2022-08-28T08:19:06.461Z,66.40
2022-08-28T08:21:33.185Z,65.70
2022-08-28T08:24:03.034Z,63.82
2022-08-28T08:26:29.738Z,62.54
2022-08-28T08:28:57.180Z,62.04
2022-08-28T08:31:27.566Z,62.10
2022-08-28T08:33:57.874Z,60.61
2022-08-28T08:36:26.523Z,58.83
2022-08-28T08:38:59.162Z,57.72
2022-08-28T08:41:48.552Z,57.40
2022-08-28T08:44:15.085Z,57.11
2022-08-28T08:46:52.779Z,57.08
2022-08-28T08:49:25.952Z,57.23
2022-08-28T08:52:26.998Z,55.74
2022-08-28T08:55:10.330Z,56.89
2022-08-28T08:57:44.390Z,56.32
2022-08-28T09:00:17.743Z,56.04
2022-08-28T09:03:02.638Z,55.59
2022-08-28T09:05:42.478Z,54.93
2022-08-28T09:08:17.752Z,56.97
2022-08-28T09:10:55.024Z,54.96
2022-08-28T09:13:32.084Z,55.79
2022-08-28T09:16:02.297Z,55.32
2022-08-28T09:18:34.341Z,54.75
2022-08-28T09:21:01.155Z,53.33
2022-08-28T09:23:29.870Z,51.33
2022-08-28T09:26:03.053Z,51.02
2022-08-28T09:28:36.113Z,52.04
2022-08-28T09:31:34.418Z,51.53
2022-08-28T09:34:35.480Z,53.13
2022-08-28T09:37:08.604Z,52.80
2022-08-28T09:39:38.225Z,53.47
2022-08-28T09:42:32.725Z,53.18
2022-08-28T09:45:13.793Z,51.32
2022-08-28T09:47:51.449Z,51.46
2022-08-28T09:50:32.115Z,51.50
2022-08-28T09:53:20.606Z,51.28
2022-08-28T09:56:05.866Z,51.54
2022-08-28T09:58:42.449Z,52.47
2022-08-28T10:01:18.200Z,51.42
2022-08-28T10:04:15.397Z,50.31
2022-08-28T10:06:48.860Z,50.58
2022-08-28T10:09:31.655Z,50.72
2022-08-28T10:12:04.461Z,49.90
2022-08-28T10:14:46.624Z,50.17
2022-08-28T10:17:32.192Z,51.22
2022-08-28T10:20:03.692Z,50.73
2022-08-28T10:22:44.295Z,50.95
2022-08-28T10:25:22.634Z,49.77
2022-08-28T10:28:05.403Z,49.41
2022-08-28T10:30:39.239Z,50.02
2022-08-28T10:33:13.888Z,50.91
2022-08-28T10:35:51.689Z,50.23
2022-08-28T10:38:27.348Z,49.99
2022-08-28T10:41:23.301Z,48.26
2022-08-28T10:43:53.099Z,48.91
2022-08-28T10:46:29.752Z,48.04
2022-08-28T10:49:02.061Z,47.09
2022-08-28T10:51:35.453Z,47.05
2022-08-28T10:54:07.761Z,46.51
2022-08-28T10:56:43.922Z,47.67
2022-08-28T10:59:10.514Z,47.66
2022-08-28T11:01:41.879Z,47.72
2022-08-28T11:04:23.443Z,46.81
2022-08-28T11:06:56.611Z,45.92
2022-08-28T11:09:36.787Z,45.51
2022-08-28T11:12:10.055Z,44.55
2022-08-28T11:14:48.541Z,45.22
2022-08-28T11:17:25.455Z,45.01
2022-08-28T11:20:14.089Z,43.64
2022-08-28T11:22:46.937Z,44.82
2022-08-28T11:25:26.601Z,44.88
2022-08-28T11:28:22.392Z,44.75
2022-08-28T11:31:10.482Z,44.20
2022-08-28T11:33:52.919Z,44.32
2022-08-28T11:36:22.574Z,45.13
2022-08-28T11:38:52.145Z,45.17
2022-08-28T11:41:24.376Z,45.14
2022-08-28T11:43:52.507Z,45.03
2022-08-28T11:46:32.851Z,45.16
2022-08-28T11:49:03.269Z,45.30
2022-08-28T11:51:49.734Z,45.05
2022-08-28T11:54:27.524Z,44.98
2022-08-28T11:57:03.504Z,45.11
2022-08-28T11:59:40.029Z,44.18
2022-08-28T12:02:40.960Z,43.82
2022-08-28T12:05:11.452Z,44.93
2022-08-28T12:07:44.483Z,45.12
2022-08-28T12:10:20.661Z,44.54
2022-08-28T12:12:47.235Z,44.89
2022-08-28T12:15:33.389Z,45.49
2022-08-28T12:18:06.464Z,46.64
2022-08-28T12:20:51.280Z,46.55
2022-08-28T12:23:44.431Z,46.22
2022-08-28T12:26:22.366Z,45.91
2022-08-28T12:28:55.992Z,45.33
2022-08-28T12:31:56.206Z,44.94
2022-08-28T12:34:38.118Z,45.37
2022-08-28T12:37:21.397Z,46.45
2022-08-28T12:39:48.085Z,45.61
2022-08-28T12:42:18.890Z,45.70
2022-08-28T12:44:47.038Z,45.94
2022-08-28T12:47:17.577Z,45.13
2022-08-28T12:49:44.755Z,45.56
2022-08-28T12:52:21.283Z,46.31
2022-08-28T12:54:55.097Z,46.82
2022-08-28T12:57:25.162Z,47.67
2022-08-28T12:59:54.501Z,46.93
2022-08-28T13:02:26.102Z,44.95
2022-08-28T13:04:55.594Z,44.48
2022-08-28T13:07:36.741Z,43.82
2022-08-28T13:10:17.781Z,43.78
2022-08-28T13:12:54.986Z,42.95
2022-08-28T13:15:52.584Z,43.03
2022-08-28T13:18:42.813Z,43.80
2022-08-28T13:21:25.542Z,44.34
2022-08-28T13:24:27.165Z,44.04
2022-08-28T13:27:17.899Z,44.24
2022-08-28T13:30:08.061Z,45.47
2022-08-28T13:32:39.324Z,45.70
2022-08-28T13:35:12.827Z,45.26
2022-08-28T13:37:41.068Z,45.70
2022-08-28T13:40:19.781Z,44.77
2022-08-28T13:43:06.866Z,45.29
2022-08-28T13:45:42.342Z,45.69
2022-08-28T13:48:16.269Z,44.85
2022-08-28T13:50:45.704Z,45.10
2022-08-28T13:53:15.269Z,44.93
2022-08-28T13:55:42.026Z,43.47
2022-08-28T13:58:08.685Z,44.31
2022-08-28T14:00:39.884Z,43.53
2022-08-28T14:03:26.193Z,42.60
2022-08-28T14:05:55.268Z,43.59
2022-08-28T14:08:22.179Z,42.07
2022-08-28T14:10:49.003Z,42.64
2022-08-28T14:13:15.864Z,42.78
2022-08-28T14:15:42.483Z,42.70
2022-08-28T14:18:09.413Z,42.35
2022-08-28T14:20:38.224Z,42.85
2022-08-28T14:23:05.035Z,43.18
2022-08-28T14:25:37.069Z,41.79
2022-08-28T14:28:05.801Z,42.99
2022-08-28T14:30:32.668Z,41.87
2022-08-28T14:32:59.235Z,41.97
2022-08-28T14:35:26.608Z,41.31
2022-08-28T14:37:53.221Z,41.01
2022-08-28T14:40:20.853Z,41.57
2022-08-28T14:42:47.583Z,41.50
2022-08-28T14:45:14.273Z,40.96
2022-08-28T14:47:40.897Z,41.79
2022-08-28T14:50:08.183Z,42.56
2022-08-28T14:52:35.124Z,42.95
2022-08-28T14:55:02.384Z,42.32
2022-08-28T14:57:29.254Z,44.37
2022-08-28T14:59:56.073Z,42.87
2022-08-28T15:02:22.701Z,44.29
2022-08-28T15:04:50.808Z,43.49
2022-08-28T15:07:17.698Z,43.09
2022-08-28T15:09:44.261Z,43.31
2022-08-28T15:12:11.358Z,42.85
2022-08-28T15:14:38.179Z,42.72
2022-08-28T15:17:05.753Z,43.36
2022-08-28T15:19:33.010Z,43.74
2022-08-28T15:22:00.254Z,44.04
2022-08-28T15:24:31.393Z,43.84
2022-08-28T15:26:59.858Z,43.77
2022-08-28T15:29:28.109Z,43.78
2022-08-28T15:31:55.277Z,43.41
2022-08-28T15:34:25.288Z,43.52
2022-08-28T15:36:55.095Z,43.38
2022-08-28T15:39:46.445Z,43.02
2022-08-28T15:42:13.906Z,43.41
2022-08-28T15:44:40.951Z,44.13
2022-08-28T15:47:09.055Z,44.38
2022-08-28T15:49:43.679Z,44.18
2022-08-28T15:52:19.469Z,45.66
2022-08-28T15:54:47.086Z,44.27
2022-08-28T15:57:13.966Z,44.26
2022-08-28T15:59:49.994Z,44.15
2022-08-28T16:02:22.409Z,44.62
2022-08-28T16:04:49.582Z,44.67
2022-08-28T16:07:18.566Z,44.45
2022-08-28T16:09:45.457Z,44.89
2022-08-28T16:12:12.262Z,44.76
2022-08-28T16:14:39.500Z,45.88
2022-08-28T16:17:10.821Z,46.20
2022-08-28T16:19:41.714Z,45.08
2022-08-28T16:22:10.166Z,45.36
2022-08-28T16:24:37.704Z,45.00
2022-08-28T16:27:07.849Z,46.21
2022-08-28T16:29:37.862Z,46.11
2022-08-28T16:32:08.280Z,46.12
2022-08-28T16:34:35.138Z,46.78
2022-08-28T16:37:03.713Z,46.50
2022-08-28T16:39:30.605Z,46.43
2022-08-28T16:41:57.505Z,46.64
2022-08-28T16:44:26.170Z,47.05
2022-08-28T16:46:53.729Z,46.59
2022-08-28T16:49:23.956Z,46.84
2022-08-28T16:51:50.864Z,46.73
2022-08-28T16:54:18.249Z,46.84
2022-08-28T16:56:46.330Z,47.40
2022-08-28T16:59:16.547Z,46.97
2022-08-28T17:01:43.471Z,47.63
2022-08-28T17:04:10.521Z,47.94
2022-08-28T17:06:37.106Z,48.38
2022-08-28T17:09:04.196Z,48.38
2022-08-28T17:11:31.009Z,48.88
2022-08-28T17:13:58.710Z,49.03
2022-08-28T17:16:31.382Z,49.66
2022-08-28T17:19:01.657Z,49.82
2022-08-28T17:21:46.977Z,49.96
2022-08-28T17:24:13.893Z,50.63
2022-08-28T17:26:42.312Z,50.81
2022-08-28T17:29:09.363Z,50.67
2022-08-28T17:31:39.078Z,50.89
2022-08-28T17:34:07.313Z,51.42
2022-08-28T17:36:37.709Z,51.14
2022-08-28T17:39:08.954Z,51.43
2022-08-28T17:41:35.654Z,51.66
2022-08-28T17:44:03.431Z,51.34
2022-08-28T17:46:32.906Z,52.00
2022-08-28T17:49:03.566Z,52.13
2022-08-28T17:51:42.297Z,52.90
2022-08-28T17:54:17.725Z,52.74
2022-08-28T17:56:46.254Z,53.49
2022-08-28T17:59:13.219Z,53.35
2022-08-28T18:01:41.880Z,53.31
2022-08-28T18:04:09.008Z,52.86
2022-08-28T18:06:37.111Z,52.50
2022-08-28T18:09:05.081Z,53.36
2022-08-28T18:11:31.956Z,52.98
2022-08-28T18:14:01.063Z,53.16
2022-08-28T18:16:31.915Z,52.97
2022-08-28T18:19:00.342Z,53.21
2022-08-28T18:21:28.264Z,54.17
2022-08-28T18:23:55.042Z,54.82
2022-08-28T18:26:23.188Z,56.07
2022-08-28T18:28:50.843Z,57.04
2022-08-28T18:31:18.085Z,57.48
2022-08-28T18:33:45.034Z,57.86
2022-08-28T18:36:13.914Z,58.58
2022-08-28T18:38:42.349Z,58.66
2022-08-28T18:41:10.065Z,59.09
2022-08-28T18:43:37.234Z,59.45
2022-08-28T18:46:05.930Z,59.71
2022-08-28T18:48:33.077Z,60.01
2022-08-28T18:50:59.712Z,60.42
2022-08-28T18:53:27.901Z,61.00
2022-08-28T18:55:55.645Z,61.35
2022-08-28T18:58:24.422Z,61.36
2022-08-28T19:00:51.537Z,61.38
2022-08-28T19:03:18.413Z,61.90
2022-08-28T19:05:48.513Z,62.08
2022-08-28T19:08:15.379Z,62.03
2022-08-28T19:10:42.203Z,62.32
2022-08-28T19:13:09.124Z,62.25
2022-08-28T19:15:35.973Z,62.65
2022-08-28T19:18:03.118Z,62.97
2022-08-28T19:20:30.483Z,63.16
2022-08-28T19:22:58.288Z,63.61
2022-08-28T19:25:28.247Z,63.34
2022-08-28T19:27:59.326Z,63.55
2022-08-28T19:30:28.390Z,63.93
2022-08-28T19:32:55.207Z,63.10
2022-08-28T19:35:24.901Z,63.00
2022-08-28T19:37:54.372Z,62.78
2022-08-28T19:40:22.026Z,63.45
2022-08-28T19:42:49.998Z,63.44
2022-08-28T19:45:17.885Z,63.72
2022-08-28T19:47:45.334Z,63.55
2022-08-28T19:50:14.403Z,63.45
2022-08-28T19:52:43.009Z,63.18
2022-08-28T19:55:18.224Z,63.38
2022-08-28T19:57:46.813Z,63.24
2022-08-28T20:00:17.659Z,63.52
2022-08-28T20:02:45.085Z,63.48
2022-08-28T20:05:11.951Z,63.86
2022-08-28T20:07:38.645Z,63.73
2022-08-28T20:10:06.389Z,63.64
2022-08-28T20:12:34.102Z,64.06
2022-08-28T20:15:03.597Z,64.24
2022-08-28T20:17:30.675Z,64.38
2022-08-28T20:20:02.332Z,64.52
2022-08-28T20:22:29.713Z,64.30
2022-08-28T20:24:56.362Z,64.69
2022-08-28T20:27:22.920Z,64.55
2022-08-28T20:29:49.608Z,64.80
2022-08-28T20:32:16.281Z,64.83
2022-08-28T20:34:44.580Z,65.09
2022-08-28T20:37:11.721Z,65.40
2022-08-28T20:39:41.438Z,65.57
2022-08-28T20:42:09.424Z,65.77
2022-08-28T20:44:37.814Z,66.01
2022-08-28T20:47:05.414Z,65.77
2022-08-28T20:49:32.323Z,66.40
2022-08-28T20:52:05.619Z,66.47
2022-08-28T20:54:37.475Z,66.72
2022-08-28T20:57:07.924Z,66.52
2022-08-28T20:59:40.024Z,66.89
2022-08-28T21:02:14.991Z,67.15
2022-08-28T21:04:43.655Z,66.84
2022-08-28T21:07:11.458Z,67.71
2022-08-28T21:10:02.204Z,67.40
2022-08-28T21:12:25.614Z,67.54
2022-08-28T21:14:52.881Z,67.95
2022-08-28T21:17:20.863Z,68.03
2022-08-28T21:19:58.477Z,68.42
2022-08-28T21:22:25.076Z,68.44
2022-08-28T21:24:52.443Z,68.27
2022-08-28T21:27:21.033Z,68.80
2022-08-28T21:29:47.981Z,68.86
2022-08-28T21:32:14.972Z,69.04
2022-08-28T21:34:41.653Z,69.06
2022-08-28T21:37:08.262Z,69.50
2022-08-28T21:39:35.219Z,69.63
2022-08-28T21:42:02.158Z,69.38
2022-08-28T21:44:28.978Z,69.76
2022-08-28T21:46:55.632Z,69.83
2022-08-28T21:49:23.005Z,69.72
2022-08-28T21:51:50.575Z,69.93
2022-08-28T21:54:19.446Z,70.22
2022-08-28T21:56:46.255Z,70.07
2022-08-28T21:59:14.793Z,70.50
2022-08-28T22:01:43.803Z,70.66
2022-08-28T22:04:10.701Z,70.79
2022-08-28T22:06:37.347Z,70.96
2022-08-28T22:09:04.875Z,71.13
2022-08-28T22:11:31.696Z,71.24
2022-08-28T22:13:58.255Z,71.26
2022-08-28T22:16:26.777Z,71.53
2022-08-28T22:18:54.244Z,71.80
2022-08-28T22:21:44.073Z,72.25
2022-08-28T22:24:11.725Z,72.21
2022-08-28T22:26:38.410Z,73.15
2022-08-28T22:29:05.903Z,72.80
2022-08-28T22:31:32.627Z,73.12
2022-08-28T22:33:59.254Z,73.18
2022-08-28T22:36:29.179Z,73.30
2022-08-28T22:38:58.316Z,73.49
2022-08-28T22:41:25.305Z,74.38
2022-08-28T22:43:53.073Z,74.14
2022-08-28T22:46:20.692Z,73.71
2022-08-28T22:48:53.420Z,73.99
2022-08-28T22:51:20.789Z,74.80
2022-08-28T22:53:48.186Z,74.97
2022-08-28T22:56:17.101Z,75.06
2022-08-28T22:58:44.038Z,75.80
2022-08-28T23:01:22.553Z,75.69
2022-08-28T23:03:49.866Z,75.74
2022-08-28T23:06:16.813Z,76.11
2022-08-28T23:08:43.460Z,76.21
2022-08-28T23:11:11.083Z,76.93
2022-08-28T23:13:38.311Z,76.88
2022-08-28T23:16:05.956Z,76.87
2022-08-28T23:18:46.279Z,77.10
2022-08-28T23:21:23.676Z,77.47
2022-08-28T23:23:53.489Z,77.25
2022-08-28T23:26:20.233Z,77.17
2022-08-28T23:28:46.972Z,77.44
2022-08-28T23:31:13.972Z,77.44
2022-08-28T23:33:41.037Z,77.78
2022-08-28T23:36:08.025Z,78.05
2022-08-28T23:38:38.953Z,77.58
2022-08-28T23:41:08.009Z,77.98
2022-08-28T23:43:35.071Z,77.97
2022-08-28T23:46:01.915Z,77.43
2022-08-28T23:48:29.169Z,76.75
2022-08-28T23:50:55.909Z,77.06
2022-08-28T23:53:22.553Z,77.70
2022-08-28T23:55:49.798Z,77.90
2022-08-28T23:58:20.712Z,77.78
